Terminal Aerodrome Forecast
Issued by NWS

Home | Current Version | Previous Version | Text Only | Print | Product List | Glossary On
Versions: 1 2 3 4 5 6 7 8 9 10 11 12 13 14 15 16
646
FTUS44 KLIX 282331
TAFMCB
TAF
KMCB 282331Z 2900/2924 17021G26KT P6SM SCT029 SCT040 BKN045
     FM290300 15012KT P6SM BKN025
     FM290500 15012KT P6SM BKN015
     FM291600 16017G26KT P6SM BKN020=

USA.gov is the U.S. government's official web portal to all federal, state and local government web resources and services.